Capa, South Dakota
Current Conditions -  °F | °C
As of 3:55 PM on Friday 31 Oct 2014 (Local Time) from KPHP Reporting Station
Clear Clear  
Wind Chill: 51°   Ceiling: Unl
Heat Index: 51°   Visibility: 10mi
Dew Point: 16°   Wind: 24mph
Humidity: 25%   Direction: 140°SE
Pressure: 30.18"   Gusts: 32mph
Location:  44.3169°N, 101.368°W
Report Text: KPHP 312155Z AUTO 14021G28KT 10SM CLR 11/M09 A3018 RMK AO2 PK WND 14028/2155 SLP230 T01061089
Loading
Personal Weather Stations






























Interactive Weather Map
Tropical Storm Tracking
New forecast layout! Learn more

10-Day Weather Forecast

Advertisements
Track Severe Weather on mobile